Aviation Digital Data Service (ADDS)

Output produced by TAFs form (0504 UTC 27 July 2017)
found at http://www.aviationweather.gov/adds/tafs/
 
KRWF 262334Z 2700/2724 35007KT P6SM FEW250 
     FM271600 02006KT P6SM SCT050
       
KMSP 270305Z 2703/2806 35003KT P6SM FEW250 
     FM271700 01006KT P6SM SCT050